Time;durP1;ratioP1;P1;durP2;ratioP2;P2;SDS_P1;SDS_P2;PMS_P1;PMS_P2;Temp;Humidity;BMP_temperature;BMP_pressure;BME280_temperature;BME280_humidity;BME280_pressure;Samples;Min_cycle;Max_cycle;Signal;HPM_P1;HPM_P2
2022/08/14 05:01:26;;;;;;;4.25;3.17;;;16.80;85.90;;;;;;5968112;23;20018;-76
2022/08/14 05:03:53;;;;;;;4.68;3.38;;;16.90;86.00;;;;;;4985070;28;20061;-74
2022/08/14 05:06:20;;;;;;;5.22;3.00;;;16.90;85.80;;;;;;4948220;29;20034;-77
2022/08/14 05:08:46;;;;;;;3.70;2.85;;;17.00;85.50;;;;;;4965804;29;20313;-75
2022/08/14 05:11:12;;;;;;;5.25;3.40;;;17.00;85.50;;;;;;4960783;29;20031;-76
2022/08/14 05:13:38;;;;;;;4.90;2.80;;;17.10;85.10;;;;;;4947248;28;20055;-75
2022/08/14 05:16:05;;;;;;;4.70;3.17;;;17.20;84.50;;;;;;4946787;29;20055;-73
2022/08/14 05:18:36;;;;;;;6.68;3.30;;;17.30;84.80;;;;;;4945705;29;20186;-77
2022/08/14 05:21:04;;;;;;;4.45;3.28;;;17.40;84.80;;;;;;4929665;29;20115;-75
2022/08/14 05:23:33;;;;;;;5.72;3.22;;;17.50;84.30;;;;;;4945883;29;20050;-75
2022/08/14 05:26:11;;;;;;;5.13;3.30;;;17.60;84.00;;;;;;4929584;29;20028;-76
2022/08/14 05:28:43;;;;;;;4.28;3.45;;;17.70;83.70;;;;;;4914019;29;20031;-77
2022/08/14 05:31:18;;;;;;;7.20;3.10;;;17.70;83.60;;;;;;4913814;29;20032;-76
2022/08/14 05:33:44;;;;;;;5.82;3.33;;;17.80;83.30;;;;;;4945862;29;20039;-76
2022/08/14 05:36:13;;;;;;;5.22;3.40;;;17.90;83.00;;;;;;4914139;29;20104;-74
2022/08/14 05:38:46;;;;;;;5.90;3.70;;;18.00;82.90;;;;;;4915280;29;20030;-74
2022/08/14 05:41:16;;;;;;;5.95;3.10;;;18.00;82.90;;;;;;4948618;29;20035;-75
2022/08/14 05:43:43;;;;;;;4.47;3.20;;;18.10;82.80;;;;;;4913131;29;20047;-74
2022/08/14 05:46:12;;;;;;;3.78;3.33;;;18.10;82.80;;;;;;4913083;29;20111;-76
2022/08/14 05:48:38;;;;;;;4.80;3.40;;;18.30;82.50;;;;;;4913585;29;20046;-76
2022/08/14 05:51:04;;;;;;;5.95;3.45;;;18.40;82.00;;;;;;4928744;29;20036;-73
2022/08/14 05:53:31;;;;;;;4.95;3.90;;;18.50;81.60;;;;;;4939039;29;20032;-76
2022/08/14 05:56:00;;;;;;;5.38;3.33;;;18.60;81.10;;;;;;4927485;29;20309;-77
2022/08/14 05:58:26;;;;;;;5.40;3.42;;;18.70;80.60;;;;;;4943975;29;20039;-75
2022/08/14 06:00:54;;;;;;;4.30;2.92;;;18.70;80.20;;;;;;4927595;29;20084;-75
2022/08/14 06:03:22;;;;;;;4.70;3.20;;;18.70;80.10;;;;;;4944931;29;20051;-74
2022/08/14 06:05:51;;;;;;;7.10;3.57;;;18.80;79.80;;;;;;4928815;29;20039;-77
2022/08/14 06:08:25;;;;;;;6.25;3.53;;;18.80;79.80;;;;;;4928007;29;20031;-74
2022/08/14 06:11:01;;;;;;;4.82;3.15;;;18.90;78.80;;;;;;4925462;29;20046;-75
2022/08/14 06:13:35;;;;;;;5.05;3.28;;;18.90;78.40;;;;;;4926076;29;20246;-75
2022/08/14 06:16:00;;;;;;;4.88;3.30;;;19.00;78.50;;;;;;4909426;29;20035;-75
2022/08/14 06:18:26;;;;;;;6.18;3.47;;;19.00;78.80;;;;;;4925842;29;20028;-76
2022/08/14 06:20:53;;;;;;;4.68;3.13;;;19.00;78.90;;;;;;4925975;29;20048;-76
2022/08/14 06:23:19;;;;;;;4.97;3.03;;;19.10;78.70;;;;;;4908525;29;20325;-74
2022/08/14 06:25:45;;;;;;;4.28;2.85;;;19.10;78.70;;;;;;4926374;29;20195;-75
2022/08/14 06:28:25;;;;;;;3.97;2.95;;;19.20;78.20;;;;;;4906492;29;20030;-76
2022/08/14 06:30:52;;;;;;;5.95;2.88;;;19.30;77.90;;;;;;4945098;29;20039;-75
2022/08/14 06:33:19;;;;;;;5.05;2.78;;;19.60;77.20;;;;;;4911625;29;20070;-76
2022/08/14 06:35:46;;;;;;;3.65;2.67;;;19.70;76.70;;;;;;4944973;29;20043;-74
2022/08/14 06:38:17;;;;;;;6.75;3.08;;;19.90;76.40;;;;;;4941229;29;20035;-75
2022/08/14 06:40:43;;;;;;;3.55;2.70;;;19.90;76.20;;;;;;4925872;29;20040;-77
2022/08/14 06:43:10;;;;;;;4.05;2.90;;;20.10;76.00;;;;;;4925957;29;20369;-75
2022/08/14 06:45:39;;;;;;;4.93;2.92;;;20.30;75.60;;;;;;4925341;29;20047;-73
2022/08/14 06:48:15;;;;;;;;;;;20.40;75.50;;;;;;4909751;29;20220;-75
2022/08/14 06:50:42;;;;;;;4.65;2.92;;;20.50;75.20;;;;;;4893479;29;19907;-75
2022/08/14 06:53:08;;;;;;;5.20;3.22;;;20.70;75.00;;;;;;4926010;29;20020;-75
2022/08/14 06:55:34;;;;;;;3.45;2.58;;;20.80;74.60;;;;;;4925149;29;20035;-76
2022/08/14 06:58:00;;;;;;;8.73;3.45;;;20.90;74.40;;;;;;4908933;29;20111;-73
2022/08/14 07:00:27;;;;;;;5.07;2.90;;;21.00;74.20;;;;;;4925334;29;20032;-75
2022/08/14 07:05:46;;;;;;;3.40;2.70;;;21.00;73.70;;;;;;4924667;29;20042;-75
2022/08/14 07:08:17;;;;;;;3.50;2.72;;;21.30;73.20;;;;;;4909018;29;20043;-75
2022/08/14 07:10:44;;;;;;;5.88;2.85;;;21.50;72.60;;;;;;4908754;29;20067;-77
2022/08/14 07:13:12;;;;;;;3.87;2.60;;;21.60;72.00;;;;;;4908921;29;20042;-75
2022/08/14 07:15:49;;;;;;;3.85;2.67;;;21.80;71.40;;;;;;4908888;29;20450;-75
2022/08/14 07:18:20;;;;;;;3.10;2.58;;;21.90;69.90;;;;;;4925624;29;20104;-74
2022/08/14 07:21:00;;;;;;;4.55;2.75;;;21.90;69.00;;;;;;4908400;29;20222;-76
2022/08/14 07:23:29;;;;;;;3.53;2.40;;;22.10;68.60;;;;;;4903107;29;20036;-74
2022/08/14 07:25:56;;;;;;;4.10;2.33;;;22.20;67.70;;;;;;4925498;29;20036;-76
2022/08/14 07:28:32;;;;;;;4.82;2.35;;;22.30;67.30;;;;;;4907836;29;20032;-77
2022/08/14 07:31:00;;;;;;;5.80;2.38;;;22.40;67.00;;;;;;4925396;29;20070;-76
2022/08/14 07:33:29;;;;;;;2.78;2.15;;;22.50;66.60;;;;;;4892247;29;20020;-73
2022/08/14 07:36:00;;;;;;;5.22;2.33;;;22.60;66.20;;;;;;4893799;29;20032;-76
2022/08/14 07:38:30;;;;;;;3.30;2.20;;;22.80;66.00;;;;;;4911868;29;20036;-74
2022/08/14 07:40:58;;;;;;;4.30;2.20;;;23.00;65.30;;;;;;4929088;29;20055;-74
2022/08/14 07:43:25;;;;;;;3.35;2.30;;;23.10;64.60;;;;;;4928545;29;20035;-75
2022/08/14 07:45:50;;;;;;;3.03;1.92;;;23.30;64.40;;;;;;4912122;29;20040;-75
2022/08/14 07:48:16;;;;;;;3.00;2.30;;;23.50;64.20;;;;;;4912241;29;20135;-75
2022/08/14 07:50:42;;;;;;;2.80;1.90;;;23.60;64.00;;;;;;4911618;29;20370;-76
2022/08/14 07:53:09;;;;;;;3.33;1.85;;;23.80;63.30;;;;;;4912189;29;20057;-76
2022/08/14 07:55:35;;;;;;;2.83;1.80;;;23.90;63.30;;;;;;4908389;29;20132;-74
2022/08/14 07:58:07;;;;;;;3.13;1.98;;;24.00;62.80;;;;;;4893330;29;20238;-76
2022/08/14 08:00:33;;;;;;;3.42;2.05;;;24.10;62.90;;;;;;4892988;29;20076;-75
2022/08/14 08:02:59;;;;;;;2.83;1.88;;;24.30;62.70;;;;;;4909528;29;20049;-76
2022/08/14 08:05:27;;;;;;;4.38;2.20;;;24.40;62.60;;;;;;4892972;29;20032;-76
2022/08/14 08:07:53;;;;;;;3.05;1.98;;;24.40;62.60;;;;;;4877825;29;20133;-75
2022/08/14 08:10:30;;;;;;;7.03;2.20;;;24.60;62.10;;;;;;4909519;29;20040;-76
2022/08/14 08:13:11;;;;;;;4.13;1.92;;;24.60;62.00;;;;;;4909901;29;20397;-74
2022/08/14 08:18:40;;;;;;;3.90;1.98;;;24.90;61.30;;;;;;4892345;29;20032;-74
2022/08/14 08:21:10;;;;;;;5.93;2.10;;;24.90;60.20;;;;;;4908292;29;20157;-75
2022/08/14 08:23:36;;;;;;;2.88;1.98;;;25.00;60.30;;;;;;4892275;29;20295;-75
2022/08/14 08:26:02;;;;;;;4.18;1.85;;;25.10;59.90;;;;;;4909458;29;20056;-75
2022/08/14 08:28:30;;;;;;;3.25;2.00;;;25.10;59.60;;;;;;4908863;29;20060;-74
2022/08/14 08:31:01;;;;;;;3.47;2.20;;;25.30;59.90;;;;;;4909419;29;20075;-73
2022/08/14 08:33:31;;;;;;;5.15;2.13;;;25.30;60.00;;;;;;4891936;29;20207;-75
2022/08/14 08:35:59;;;;;;;5.07;2.42;;;25.30;60.30;;;;;;4895391;29;20289;-75
2022/08/14 08:38:27;;;;;;;4.10;2.10;;;25.40;61.00;;;;;;4910664;29;20365;-74
2022/08/14 08:40:56;;;;;;;2.78;2.10;;;25.40;60.70;;;;;;4895829;29;20071;-75
2022/08/14 08:43:23;;;;;;;4.05;2.40;;;25.40;60.60;;;;;;4895052;29;20048;-73
2022/08/14 08:46:03;;;;;;;2.95;1.92;;;25.50;60.30;;;;;;4927601;29;20099;-75
2022/08/14 08:48:46;;;;;;;3.65;2.08;;;25.50;59.80;;;;;;4926728;29;20031;-73
2022/08/14 08:51:21;;;;;;;2.67;2.00;;;25.60;60.10;;;;;;4929669;29;20329;-74
2022/08/14 08:53:56;;;;;;;3.00;1.65;;;25.70;60.00;;;;;;4926275;29;20044;-74
2022/08/14 08:56:48;;;;;;;3.53;1.88;;;25.80;59.00;;;;;;4925379;29;20116;-78
2022/08/14 08:59:37;;;;;;;3.67;1.90;;;26.00;58.50;;;;;;4928546;29;20055;-75
2022/08/14 09:02:08;;;;;;;4.20;2.00;;;26.10;58.50;;;;;;4945322;29;20112;-75
2022/08/14 09:05:02;;;;;;;3.35;1.70;;;26.30;57.10;;;;;;4912627;29;20028;-74
2022/08/14 09:07:29;;;;;;;3.20;2.00;;;26.50;56.20;;;;;;4881271;29;20035;-77
2022/08/14 09:09:55;;;;;;;3.50;2.65;;;26.70;56.50;;;;;;4910281;29;20195;-74
2022/08/14 09:12:21;;;;;;;3.75;2.55;;;26.90;55.50;;;;;;4926677;29;20058;-74
2022/08/14 09:14:47;;;;;;;5.15;1.90;;;27.00;55.20;;;;;;4926424;29;20044;-76
2022/08/14 09:17:24;;;;;;;6.78;1.90;;;27.20;53.80;;;;;;4909939;29;20115;-75
2022/08/14 09:20:08;;;;;;;2.88;1.80;;;27.20;53.60;;;;;;4925250;29;20040;-75
2022/08/14 09:22:40;;;;;;;3.10;1.70;;;27.30;53.70;;;;;;4909504;29;20020;-74
2022/08/14 09:25:07;;;;;;;2.65;1.70;;;27.50;54.00;;;;;;4928849;29;20253;-76
2022/08/14 09:27:38;;;;;;;3.53;1.90;;;27.50;53.30;;;;;;4927836;29;20038;-75
2022/08/14 09:30:14;;;;;;;3.47;1.80;;;27.40;53.30;;;;;;4945484;29;20031;-74
2022/08/14 09:33:12;;;;;;;3.35;2.10;;;27.40;53.30;;;;;;4944974;29;20028;-76
2022/08/14 09:35:56;;;;;;;2.90;1.55;;;27.60;53.50;;;;;;4944687;29;20103;-75
2022/08/14 09:38:49;;;;;;;3.42;2.05;;;27.60;53.40;;;;;;4912269;29;20050;-76
2022/08/14 09:42:03;;;;;;;2.80;1.98;;;27.70;53.30;;;;;;4927726;29;20102;-75
2022/08/14 09:44:38;;;;;;;2.97;2.00;;;27.80;52.90;;;;;;4927657;29;20048;-76
2022/08/14 09:47:04;;;;;;;4.18;1.80;;;27.90;52.90;;;;;;4928062;29;20066;-75
2022/08/14 09:49:31;;;;;;;3.90;2.17;;;27.80;52.80;;;;;;4927216;29;20337;-74
2022/08/14 09:52:14;;;;;;;2.65;1.67;;;27.80;53.00;;;;;;4929913;29;20039;-75
2022/08/14 09:54:43;;;;;;;2.90;1.75;;;27.90;53.30;;;;;;4924056;29;20112;-75
2022/08/14 09:57:12;;;;;;;3.13;1.80;;;28.00;52.70;;;;;;4909089;29;20070;-75
2022/08/14 09:59:56;;;;;;;2.30;1.65;;;28.20;52.60;;;;;;4913426;29;20032;-74
2022/08/14 10:02:29;;;;;;;3.90;3.05;;;28.20;51.80;;;;;;4915453;29;20048;-77
2022/08/14 10:05:00;;;;;;;8.20;4.88;;;28.30;52.00;;;;;;4891732;29;20075;-75
2022/08/14 10:07:34;;;;;;;4.35;3.15;;;28.30;52.10;;;;;;4906972;29;20040;-77
2022/08/14 10:10:00;;;;;;;3.83;1.98;;;28.40;51.80;;;;;;4906622;29;20087;-77
2022/08/14 10:12:47;;;;;;;2.60;1.88;;;28.40;51.80;;;;;;4906983;29;20035;-77
2022/08/14 10:15:15;;;;;;;4.47;2.28;;;28.40;51.40;;;;;;4891100;29;20062;-76
2022/08/14 10:17:41;;;;;;;3.97;1.70;;;28.60;51.70;;;;;;4906249;29;20036;-76
2022/08/14 10:20:10;;;;;;;2.58;2.00;;;28.70;51.30;;;;;;4906422;29;20155;-78
2022/08/14 10:22:37;;;;;;;4.30;2.10;;;28.70;51.20;;;;;;4905938;29;20044;-78
2022/08/14 10:25:13;;;;;;;3.95;2.13;;;28.80;50.70;;;;;;4891014;29;20033;-77
2022/08/14 10:27:40;;;;;;;3.33;2.00;;;28.80;51.10;;;;;;4905877;29;20032;-76
2022/08/14 10:30:19;;;;;;;2.70;1.85;;;28.90;51.40;;;;;;4906597;29;20043;-77
2022/08/14 10:32:48;;;;;;;2.90;2.05;;;29.20;51.10;;;;;;4890549;29;20337;-78
2022/08/14 10:35:21;;;;;;;3.08;1.95;;;29.30;50.20;;;;;;4907468;29;20048;-73
2022/08/14 10:37:49;;;;;;;2.53;1.90;;;29.30;50.10;;;;;;4907683;29;20036;-75
2022/08/14 10:40:25;;;;;;;3.85;1.73;;;29.30;50.00;;;;;;4908148;29;20047;-74
2022/08/14 10:42:51;;;;;;;2.78;1.80;;;29.10;50.30;;;;;;4907051;29;20063;-74
2022/08/14 10:45:26;;;;;;;3.28;1.67;;;29.20;50.40;;;;;;4910378;29;20038;-73
2022/08/14 10:47:52;;;;;;;3.03;2.00;;;29.20;50.00;;;;;;4909765;29;20047;-74
2022/08/14 10:50:31;;;;;;;2.67;1.90;;;29.20;50.00;;;;;;4910795;29;20369;-75
2022/08/14 10:52:58;;;;;;;2.40;1.80;;;29.40;49.90;;;;;;4895094;29;20354;-74
2022/08/14 10:55:38;;;;;;;3.95;1.88;;;29.60;49.90;;;;;;4888748;29;20346;-75
2022/08/14 10:58:09;;;;;;;3.17;2.00;;;29.80;49.90;;;;;;4888666;29;20044;-75
2022/08/14 11:00:36;;;;;;;4.43;2.10;;;29.90;49.30;;;;;;4886952;29;20214;-76
2022/08/14 11:03:12;;;;;;;3.25;2.00;;;29.90;49.30;;;;;;4912634;29;20147;-75
2022/08/14 11:05:46;;;;;;;3.92;1.90;;;30.00;49.40;;;;;;4925493;29;20031;-74
2022/08/14 11:08:16;;;;;;;3.20;1.92;;;30.10;49.00;;;;;;4932774;29;20044;-74
2022/08/14 11:10:45;;;;;;;2.70;1.77;;;30.30;49.30;;;;;;4935074;29;20107;-75
2022/08/14 11:13:18;;;;;;;3.80;2.42;;;30.50;48.50;;;;;;4943691;29;20074;-75
2022/08/14 11:15:47;;;;;;;2.70;2.00;;;30.50;48.40;;;;;;4925550;29;20051;-75
2022/08/14 11:18:14;;;;;;;3.63;2.00;;;30.80;48.30;;;;;;4924360;29;20230;-75
2022/08/14 11:20:55;;;;;;;2.40;1.73;;;30.90;48.00;;;;;;4923928;29;20063;-75
2022/08/14 11:23:40;;;;;;;3.05;1.95;;;31.00;47.20;;;;;;4934761;29;20063;-75
2022/08/14 11:26:07;;;;;;;3.50;2.28;;;31.20;47.50;;;;;;4943598;29;20040;-74
2022/08/14 11:28:45;;;;;;;2.65;1.88;;;31.60;47.20;;;;;;4942928;29;20027;-75
2022/08/14 11:31:14;;;;;;;2.40;1.95;;;32.10;47.10;;;;;;4926621;29;20043;-74
2022/08/14 11:33:40;;;;;;;2.50;1.77;;;32.50;45.90;;;;;;4942686;29;20031;-75
2022/08/14 11:36:08;;;;;;;2.75;1.77;;;32.90;45.00;;;;;;4926507;29;20085;-76
2022/08/14 11:38:39;;;;;;;2.40;1.90;;;33.40;44.60;;;;;;4942938;29;20416;-76
2022/08/14 11:41:06;;;;;;;2.72;1.73;;;33.80;44.30;;;;;;4928021;29;20133;-76
2022/08/14 11:43:39;;;;;;;3.67;1.97;;;34.70;44.10;;;;;;4924100;29;20024;-76
2022/08/14 11:46:05;;;;;;;3.50;1.90;;;35.50;43.30;;;;;;4924541;29;20035;-73
2022/08/14 11:48:31;;;;;;;2.72;1.70;;;35.70;42.80;;;;;;4924736;29;20366;-73
2022/08/14 11:50:56;;;;;;;4.10;1.60;;;35.80;42.90;;;;;;4923587;29;20398;-76
2022/08/14 11:53:29;;;;;;;2.45;1.70;;;35.70;43.00;;;;;;4907380;29;20024;-75
2022/08/14 11:55:58;;;;;;;2.80;1.80;;;36.30;42.60;;;;;;4923710;29;20028;-72
2022/08/14 11:58:29;;;;;;;1.70;1.45;;;37.10;42.00;;;;;;4924450;29;20036;-73
2022/08/14 12:01:00;;;;;;;2.00;1.60;;;38.10;41.20;;;;;;4923528;29;20032;-74
2022/08/14 12:03:42;;;;;;;2.53;1.52;;;39.00;40.80;;;;;;4907022;29;20329;-75
2022/08/14 12:06:13;;;;;;;2.03;1.27;;;40.00;40.10;;;;;;4924132;29;20097;-75
2022/08/14 12:08:39;;;;;;;2.75;1.70;;;39.80;39.00;;;;;;4923467;29;20024;-74
2022/08/14 12:11:08;;;;;;;2.25;1.40;;;39.50;39.40;;;;;;4924281;29;20036;-73
2022/08/14 12:13:34;;;;;;;3.08;1.80;;;40.00;38.90;;;;;;4925919;29;20020;-74
2022/08/14 12:16:09;;;;;;;1.95;1.40;;;40.00;39.40;;;;;;4926010;29;20038;-74
2022/08/14 12:18:41;;;;;;;1.83;1.40;;;41.20;38.80;;;;;;4942677;29;20035;-74
2022/08/14 12:21:16;;;;;;;3.00;1.40;;;41.90;38.20;;;;;;4943025;29;20040;-74
2022/08/14 12:23:43;;;;;;;3.35;2.45;;;42.10;38.00;;;;;;4944481;29;20032;-74
2022/08/14 12:26:19;;;;;;;3.40;1.83;;;42.90;37.70;;;;;;4914009;29;20039;-74
2022/08/14 12:29:06;;;;;;;2.22;1.40;;;42.90;36.80;;;;;;4945864;29;20306;-75
2022/08/14 12:31:32;;;;;;;2.05;1.30;;;42.00;36.90;;;;;;4946618;29;20035;-75
2022/08/14 12:34:00;;;;;;;2.47;1.40;;;42.20;37.40;;;;;;4945960;29;20028;-74
2022/08/14 12:36:30;;;;;;;1.65;1.20;;;42.80;37.20;;;;;;4929551;29;20328;-73
2022/08/14 12:38:56;;;;;;;1.60;0.90;;;43.00;36.80;;;;;;4945825;29;20044;-76
2022/08/14 12:41:25;;;;;;;4.55;1.30;;;43.00;36.20;;;;;;4946237;29;20310;-74
2022/08/14 12:44:03;;;;;;;1.50;1.10;;;43.00;36.00;;;;;;4928933;29;20276;-75
2022/08/14 12:46:36;;;;;;;1.70;0.90;;;43.00;35.90;;;;;;4929170;29;20191;-75
2022/08/14 12:49:12;;;;;;;1.77;1.10;;;43.30;36.10;;;;;;4929106;29;20381;-75
2022/08/14 12:51:39;;;;;;;3.00;1.17;;;43.10;35.80;;;;;;4939260;29;20034;-76
2022/08/14 12:54:14;;;;;;;1.88;1.02;;;42.00;36.10;;;;;;4927093;29;20028;-74
2022/08/14 12:56:41;;;;;;;2.97;1.10;;;42.20;36.20;;;;;;4926341;29;20099;-77
2022/08/14 12:59:09;;;;;;;1.47;0.90;;;42.20;36.20;;;;;;4927000;29;20199;-75
2022/08/14 13:01:36;;;;;;;1.60;0.88;;;43.20;35.60;;;;;;4910003;29;20449;-74
2022/08/14 13:04:09;;;;;;;2.25;1.10;;;44.20;35.40;;;;;;4926932;29;20040;-73
2022/08/14 13:06:36;;;;;;;1.40;1.00;;;44.90;35.10;;;;;;4910228;29;20378;-75
2022/08/14 13:09:03;;;;;;;1.30;0.95;;;45.10;35.10;;;;;;4925413;29;20031;-74
2022/08/14 13:11:41;;;;;;;2.13;1.10;;;45.60;35.00;;;;;;4926893;29;20032;-73
2022/08/14 13:14:08;;;;;;;1.27;0.70;;;46.10;34.80;;;;;;4933077;29;20027;-75
2022/08/14 13:16:34;;;;;;;1.75;0.70;;;47.00;34.40;;;;;;4912892;29;20024;-75
2022/08/14 13:19:01;;;;;;;1.25;0.90;;;47.70;34.40;;;;;;4945060;29;20016;-73
2022/08/14 13:21:30;;;;;;;1.45;0.65;;;48.80;34.10;;;;;;4945675;29;20111;-75
2022/08/14 13:23:57;;;;;;;4.13;1.05;;;48.90;33.50;;;;;;4945420;29;20019;-75
2022/08/14 13:26:23;;;;;;;;;;;48.50;33.50;;;;;;4946144;29;20028;-74
2022/08/14 13:28:50;;;;;;;2.50;1.10;;;49.00;33.20;;;;;;4942257;29;19913;-74
2022/08/14 13:31:22;;;;;;;1.98;1.00;;;48.50;33.50;;;;;;4927503;29;20072;-74
2022/08/14 13:33:52;;;;;;;1.45;0.90;;;49.30;33.50;;;;;;4926708;29;20103;-74
2022/08/14 13:36:19;;;;;;;1.95;1.02;;;49.90;33.50;;;;;;4927237;29;20330;-75
2022/08/14 13:38:48;;;;;;;1.60;1.00;;;50.60;33.10;;;;;;4926174;29;20116;-74
2022/08/14 13:41:16;;;;;;;3.00;1.00;;;50.20;33.20;;;;;;4926986;29;20044;-74
2022/08/14 13:43:44;;;;;;;1.35;0.90;;;50.20;33.40;;;;;;4926753;29;20047;-74
2022/08/14 13:46:09;;;;;;;2.55;1.15;;;49.80;33.10;;;;;;4927103;29;20024;-77
2022/08/14 13:48:35;;;;;;;4.10;2.57;;;49.90;33.10;;;;;;4927226;29;20020;-75
2022/08/14 13:51:06;;;;;;;1.83;0.90;;;50.20;33.30;;;;;;4926597;29;20040;-74
2022/08/14 13:53:41;;;;;;;2.03;0.90;;;48.80;32.80;;;;;;4927339;29;20103;-75
2022/08/14 13:56:09;;;;;;;1.50;0.80;;;49.00;32.30;;;;;;4927302;29;20345;-74
2022/08/14 13:58:36;;;;;;;2.05;0.80;;;48.00;32.20;;;;;;4927177;29;20042;-75
2022/08/14 14:01:05;;;;;;;1.17;0.82;;;48.50;32.40;;;;;;4926491;29;20126;-74
2022/08/14 14:03:34;;;;;;;2.25;0.90;;;49.50;32.60;;;;;;4926694;29;20052;-73
2022/08/14 14:06:01;;;;;;;2.97;1.00;;;50.50;31.90;;;;;;4926512;29;20099;-73
2022/08/14 14:08:31;;;;;;;2.20;1.08;;;51.10;31.90;;;;;;4926980;29;20128;-74
2022/08/14 14:10:57;;;;;;;4.28;1.42;;;51.50;31.60;;;;;;4926265;29;20039;-74
2022/08/14 14:13:24;;;;;;;1.92;1.02;;;51.30;31.30;;;;;;4927108;29;20042;-74
2022/08/14 14:15:51;;;;;;;1.13;0.73;;;51.80;31.60;;;;;;4926411;29;20099;-74
2022/08/14 14:18:19;;;;;;;1.08;0.73;;;51.70;31.00;;;;;;4926836;29;20099;-77
2022/08/14 14:20:44;;;;;;;1.83;0.80;;;51.50;31.00;;;;;;4926266;29;20036;-74
2022/08/14 14:23:13;;;;;;;1.25;0.90;;;53.00;31.30;;;;;;4926877;29;20028;-74
2022/08/14 14:25:41;;;;;;;2.13;1.00;;;53.60;31.00;;;;;;4926797;29;20242;-74
2022/08/14 14:28:10;;;;;;;1.60;0.90;;;53.10;30.70;;;;;;4926228;29;20028;-75
2022/08/14 14:30:41;;;;;;;1.95;1.00;;;53.70;31.00;;;;;;4926606;29;20046;-77
2022/08/14 14:33:10;;;;;;;1.90;0.90;;;53.10;30.40;;;;;;4908727;29;20110;-74
2022/08/14 14:35:37;;;;;;;1.30;1.10;;;52.40;30.80;;;;;;4926230;29;20032;-73
2022/08/14 14:38:05;;;;;;;1.45;0.90;;;52.10;31.20;;;;;;4925555;29;20048;-74
2022/08/14 14:40:33;;;;;;;1.30;0.90;;;52.90;31.40;;;;;;4926452;29;20032;-75
2022/08/14 14:43:02;;;;;;;1.30;0.80;;;53.10;31.10;;;;;;4925700;29;20094;-75
2022/08/14 14:45:29;;;;;;;1.02;0.80;;;52.10;31.30;;;;;;4925901;29;20103;-75
2022/08/14 14:47:55;;;;;;;1.80;1.10;;;52.00;31.60;;;;;;4925904;29;20097;-73
2022/08/14 14:50:22;;;;;;;1.02;0.70;;;52.50;31.40;;;;;;4926115;29;20032;-74
2022/08/14 14:52:49;;;;;;;1.70;1.10;;;51.40;30.90;;;;;;4925529;29;20050;-74
2022/08/14 14:55:16;;;;;;;1.10;0.90;;;49.80;31.50;;;;;;4925812;29;20060;-75
2022/08/14 14:57:44;;;;;;;1.80;0.80;;;49.40;31.60;;;;;;4925738;29;20028;-72
2022/08/14 15:00:13;;;;;;;1.52;0.82;;;49.00;31.80;;;;;;4925741;29;20262;-74
2022/08/14 15:02:45;;;;;;;1.35;0.77;;;47.60;32.30;;;;;;4925508;29;20271;-73
2022/08/14 15:05:13;;;;;;;2.70;1.05;;;47.70;32.20;;;;;;4925674;29;20318;-72
2022/08/14 15:07:39;;;;;;;1.40;0.90;;;46.50;32.60;;;;;;4925610;29;20051;-73
2022/08/14 15:10:07;;;;;;;1.70;0.90;;;44.60;32.80;;;;;;4924915;29;20063;-72
2022/08/14 15:12:33;;;;;;;1.73;0.80;;;43.60;33.10;;;;;;4925962;29;20282;-75
2022/08/14 15:14:58;;;;;;;1.50;1.00;;;44.10;33.60;;;;;;4908260;29;20043;-74
2022/08/14 15:17:25;;;;;;;1.65;0.82;;;44.00;33.90;;;;;;4908494;29;20038;-72
2022/08/14 15:19:53;;;;;;;1.23;0.80;;;44.90;32.80;;;;;;4925019;29;20056;-73
2022/08/14 15:22:19;;;;;;;2.08;1.25;;;45.20;33.70;;;;;;4926106;29;20091;-73
2022/08/14 15:24:45;;;;;;;2.67;1.00;;;44.80;33.80;;;;;;4925588;29;20127;-75
2022/08/14 15:27:11;;;;;;;2.75;1.40;;;44.30;32.90;;;;;;4925446;29;20032;-74
2022/08/14 15:29:39;;;;;;;1.63;0.93;;;44.20;33.10;;;;;;4925478;29;20039;-74
2022/08/14 15:32:08;;;;;;;2.42;1.17;;;43.50;33.50;;;;;;4925129;29;20266;-74
2022/08/14 15:34:35;;;;;;;1.77;1.10;;;43.20;34.00;;;;;;4925373;29;20040;-74
2022/08/14 15:37:04;;;;;;;2.88;1.17;;;43.00;34.20;;;;;;4925269;29;20040;-74
2022/08/14 15:39:31;;;;;;;1.88;1.38;;;42.90;34.60;;;;;;4925643;29;20313;-74
2022/08/14 15:41:59;;;;;;;1.85;1.10;;;42.60;34.20;;;;;;4925183;29;20023;-76
2022/08/14 15:44:25;;;;;;;3.20;1.20;;;42.90;34.40;;;;;;4925767;29;20031;-73
2022/08/14 15:46:50;;;;;;;3.08;1.33;;;43.90;34.40;;;;;;4924688;29;20254;-74
2022/08/14 15:49:17;;;;;;;1.75;1.23;;;45.10;34.40;;;;;;4925268;29;20051;-73
2022/08/14 15:51:43;;;;;;;2.50;1.20;;;45.80;34.00;;;;;;4926064;29;20043;-73
2022/08/14 15:54:09;;;;;;;1.50;1.10;;;46.40;33.70;;;;;;4928431;29;20194;-73
2022/08/14 15:56:36;;;;;;;1.45;1.10;;;46.50;33.00;;;;;;4912612;29;20040;-73
2022/08/14 15:59:02;;;;;;;2.20;0.97;;;45.90;33.50;;;;;;4930439;29;20036;-73
2022/08/14 16:01:28;;;;;;;2.77;1.17;;;44.70;33.50;;;;;;4930519;29;20043;-74
2022/08/14 16:03:56;;;;;;;1.65;1.00;;;44.20;34.10;;;;;;4928303;29;20214;-73
2022/08/14 16:06:28;;;;;;;1.50;1.08;;;43.90;34.30;;;;;;4929070;29;20083;-74
2022/08/14 16:08:56;;;;;;;2.63;1.13;;;43.80;34.40;;;;;;4928633;29;20024;-74
2022/08/14 16:11:22;;;;;;;4.90;1.75;;;43.10;34.50;;;;;;4928856;29;20074;-73
2022/08/14 16:13:49;;;;;;;1.70;1.25;;;42.60;34.90;;;;;;4928252;29;20127;-74
2022/08/14 16:16:23;;;;;;;1.55;1.00;;;42.50;35.30;;;;;;4928698;29;20036;-74
2022/08/14 16:18:51;;;;;;;4.88;4.25;;;41.70;34.60;;;;;;4928054;29;20028;-75
2022/08/14 16:21:19;;;;;;;4.40;3.42;;;41.20;35.30;;;;;;4928533;29;20349;-75
2022/08/14 16:23:46;;;;;;;4.30;2.47;;;41.90;34.40;;;;;;4928893;29;20125;-74
2022/08/14 16:26:18;;;;;;;2.50;1.85;;;42.60;34.60;;;;;;4927918;29;20076;-73
2022/08/14 16:28:48;;;;;;;2.67;1.08;;;42.40;34.60;;;;;;4928434;29;20032;-74
2022/08/14 16:31:14;;;;;;;2.40;1.40;;;42.20;33.90;;;;;;4927939;29;20036;-74
2022/08/14 16:33:40;;;;;;;1.80;1.10;;;41.70;34.20;;;;;;4928350;29;20071;-73
2022/08/14 16:36:06;;;;;;;3.83;1.80;;;40.60;34.90;;;;;;4928075;29;20040;-73
2022/08/14 16:38:33;;;;;;;1.65;1.00;;;40.20;35.80;;;;;;4911452;29;20032;-74
2022/08/14 16:41:17;;;;;;;2.17;1.10;;;40.20;35.20;;;;;;4927575;29;20345;-73
2022/08/14 16:43:44;;;;;;;3.20;1.50;;;40.00;35.40;;;;;;4928522;29;20714;-74
2022/08/14 16:46:18;;;;;;;1.70;1.10;;;39.80;35.20;;;;;;4928148;29;20020;-73
2022/08/14 16:48:44;;;;;;;2.05;1.10;;;39.60;36.20;;;;;;4928588;29;20032;-74
2022/08/14 16:51:15;;;;;;;2.08;1.33;;;40.30;35.60;;;;;;4927429;29;20571;-75
2022/08/14 16:53:42;;;;;;;2.38;1.10;;;41.00;35.50;;;;;;4928411;29;20040;-73
2022/08/14 16:56:29;;;;;;;2.53;1.38;;;41.60;34.90;;;;;;4927347;29;20088;-75
2022/08/14 16:59:10;;;;;;;2.72;1.30;;;41.70;34.70;;;;;;4927804;29;20054;-75
2022/08/14 17:01:38;;;;;;;1.88;1.30;;;41.80;34.60;;;;;;4927973;29;20039;-74
2022/08/14 17:04:12;;;;;;;1.92;1.30;;;40.90;34.50;;;;;;4927719;29;20099;-75
2022/08/14 17:06:51;;;;;;;2.05;1.10;;;39.90;34.70;;;;;;4928004;29;20028;-74
2022/08/14 17:09:29;;;;;;;2.70;1.20;;;39.40;35.40;;;;;;4910412;29;20310;-74
2022/08/14 17:11:56;;;;;;;;;;;38.40;35.50;;;;;;4927917;29;20055;-73
2022/08/14 17:14:24;;;;;;;3.67;1.50;;;37.20;36.10;;;;;;4911095;29;19938;-75
2022/08/14 17:16:58;;;;;;;2.13;1.40;;;36.70;36.90;;;;;;4927744;29;20032;-75
2022/08/14 17:19:24;;;;;;;3.03;1.40;;;36.40;37.20;;;;;;4927928;29;20054;-75
2022/08/14 17:21:51;;;;;;;2.13;1.17;;;35.90;37.40;;;;;;4927781;29;20024;-75
2022/08/14 17:24:18;;;;;;;2.15;1.30;;;35.60;38.00;;;;;;4910750;29;20040;-72
2022/08/14 17:26:50;;;;;;;2.70;1.45;;;35.00;37.80;;;;;;4927419;29;20028;-73
2022/08/14 17:29:28;;;;;;;2.50;1.27;;;34.60;38.30;;;;;;4927168;29;20103;-72
2022/08/14 17:31:59;;;;;;;3.28;1.40;;;34.30;38.80;;;;;;4927077;29;20078;-72
2022/08/14 17:34:48;;;;;;;2.83;1.33;;;34.10;39.30;;;;;;4927585;29;20039;-73
2022/08/14 17:37:36;;;;;;;3.03;1.40;;;34.00;39.40;;;;;;4926886;29;20393;-72
2022/08/14 17:40:25;;;;;;;2.60;1.30;;;33.90;39.60;;;;;;4926609;29;20047;-72
2022/08/14 17:42:54;;;;;;;2.65;1.85;;;33.70;39.60;;;;;;4927511;29;20032;-74
2022/08/14 17:45:28;;;;;;;2.67;1.70;;;33.60;40.50;;;;;;4910183;29;20111;-73
2022/08/14 17:47:56;;;;;;;2.00;1.48;;;33.50;40.50;;;;;;4894693;29;20180;-74
2022/08/14 17:50:45;;;;;;;;;;;33.40;41.00;;;;;;4927493;29;20040;-72
2022/08/14 17:53:18;;;;;;;3.13;2.20;;;33.30;40.20;;;;;;4925909;29;19910;-72
2022/08/14 17:55:47;;;;;;;4.57;2.00;;;33.10;40.50;;;;;;4934054;29;20110;-74
2022/08/14 17:58:25;;;;;;;2.72;1.92;;;33.00;40.10;;;;;;4937875;29;20035;-74
2022/08/14 18:00:56;;;;;;;;;;;32.80;40.30;;;;;;4945401;29;20040;-74
2022/08/14 18:03:25;;;;;;;2.63;1.85;;;32.50;40.20;;;;;;4906932;29;19982;-73
2022/08/14 18:05:51;;;;;;;3.55;1.80;;;32.20;40.40;;;;;;4906711;29;20048;-76
2022/08/14 18:08:18;;;;;;;3.20;2.00;;;31.90;41.00;;;;;;4906221;29;20055;-73
2022/08/14 18:10:45;;;;;;;3.50;1.90;;;31.60;41.30;;;;;;4927457;29;20214;-73